IGO616 VOBL-VOMM
Flight info
| Callsign | IGO616 |
|---|---|
| Flight time | 0h 33m |
| Altitude | 19000 |
| Route | TULNA8A TULNA W116 MMV TULNA2E |
| Aircraft | A320/M-SDE3FGHIRWY/LB1 |
Departure
| Time | 2026-04-21 15:32 |
|---|---|
| Airport | Kempegowda International Airport Bengaluru (VOBL) |
Arrival
| Time | 2026-04-21 16:05 |
|---|---|
| Airport | Chennai International Airport (VOMM) |
| Time | Latitude | Longitude | Altitude | Speed | Heading |
|---|---|---|---|---|---|
| 2026-04-21 15:20 | 13.20367 | 77.69704 | 3011 ft | 0 kts | 0° |
| 2026-04-21 15:21 | 13.20362 | 77.69704 | 3011 ft | 2 kts | 0° |
| 2026-04-21 15:21 | 13.20351 | 77.69703 | 2988 ft | 2 kts | 0° |
| 2026-04-21 15:21 | 13.20330 | 77.69703 | 3021 ft | 2 kts | 360° |
| 2026-04-21 15:21 | 13.20313 | 77.69704 | 3015 ft | 2 kts | 358° |
| 2026-04-21 15:22 | 13.20297 | 77.69704 | 3014 ft | 2 kts | 355° |
| 2026-04-21 15:22 | 13.20281 | 77.69706 | 3014 ft | 2 kts | 332° |
| 2026-04-21 15:22 | 13.20272 | 77.69717 | 3018 ft | 1 kts | 266° |
| 2026-04-21 15:22 | 13.20272 | 77.69719 | 3018 ft | 0 kts | 269° |
| 2026-04-21 15:24 | 13.20272 | 77.69716 | 3011 ft | 1 kts | 269° |
| 2026-04-21 15:24 | 13.20272 | 77.69696 | 3011 ft | 6 kts | 271° |
| 2026-04-21 15:25 | 13.20273 | 77.69628 | 3011 ft | 13 kts | 271° |
| 2026-04-21 15:25 | 13.20274 | 77.69511 | 3011 ft | 20 kts | 270° |
| 2026-04-21 15:25 | 13.20284 | 77.69358 | 3011 ft | 19 kts | 296° |
| 2026-04-21 15:25 | 13.20385 | 77.69336 | 3011 ft | 15 kts | 1° |
| 2026-04-21 15:26 | 13.20507 | 77.69328 | 3011 ft | 16 kts | 339° |
| 2026-04-21 15:26 | 13.20543 | 77.69237 | 3011 ft | 17 kts | 269° |
| 2026-04-21 15:26 | 13.20541 | 77.69094 | 3011 ft | 23 kts | 269° |
| 2026-04-21 15:26 | 13.20546 | 77.68912 | 3011 ft | 24 kts | 271° |
| 2026-04-21 15:27 | 13.20548 | 77.68721 | 3011 ft | 29 kts | 270° |
| 2026-04-21 15:27 | 13.20548 | 77.68680 | 3011 ft | 5 kts | 270° |
| 2026-04-21 15:27 | 13.20566 | 77.68626 | 3013 ft | 11 kts | 317° |
| 2026-04-21 15:27 | 13.20663 | 77.68617 | 3012 ft | 17 kts | 5° |
| 2026-04-21 15:28 | 13.20719 | 77.68714 | 3011 ft | 8 kts | 91° |
| 2026-04-21 15:28 | 13.20719 | 77.68716 | 3011 ft | 0 kts | 90° |
| 2026-04-21 15:31 | 13.20719 | 77.68717 | 3011 ft | 0 kts | 90° |
| 2026-04-21 15:31 | 13.20718 | 77.68927 | 3011 ft | 72 kts | 91° |
| 2026-04-21 15:31 | 13.20712 | 77.69716 | 3011 ft | 145 kts | 91° |
| 2026-04-21 15:31 | 13.20689 | 77.70948 | 3110 ft | 195 kts | 92° |
| 2026-04-21 15:32 | 13.20682 | 77.72494 | 3386 ft | 236 kts | 86° |
| 2026-04-21 15:32 | 13.21135 | 77.74196 | 4155 ft | 260 kts | 66° |
| 2026-04-21 15:32 | 13.22065 | 77.75838 | 5245 ft | 270 kts | 59° |
| 2026-04-21 15:32 | 13.23130 | 77.77456 | 6244 ft | 277 kts | 58° |
| 2026-04-21 15:33 | 13.24219 | 77.79106 | 6897 ft | 281 kts | 58° |
| 2026-04-21 15:33 | 13.25280 | 77.80789 | 7644 ft | 282 kts | 58° |
| 2026-04-21 15:33 | 13.26304 | 77.82511 | 8327 ft | 284 kts | 61° |
| 2026-04-21 15:33 | 13.26928 | 77.84438 | 8952 ft | 288 kts | 82° |
| 2026-04-21 15:34 | 13.27073 | 77.86497 | 9677 ft | 292 kts | 88° |
| 2026-04-21 15:34 | 13.27053 | 77.88596 | 10346 ft | 296 kts | 90° |
| 2026-04-21 15:34 | 13.26972 | 77.90724 | 11007 ft | 300 kts | 90° |
| 2026-04-21 15:34 | 13.26885 | 77.92873 | 11673 ft | 303 kts | 90° |
| 2026-04-21 15:35 | 13.26810 | 77.95044 | 12350 ft | 306 kts | 90° |
| 2026-04-21 15:35 | 13.26755 | 77.97238 | 13051 ft | 308 kts | 90° |
| 2026-04-21 15:35 | 13.26717 | 77.99436 | 13781 ft | 309 kts | 90° |
| 2026-04-21 15:35 | 13.26689 | 78.01643 | 14405 ft | 311 kts | 89° |
| 2026-04-21 15:36 | 13.26665 | 78.03874 | 14978 ft | 314 kts | 89° |
| 2026-04-21 15:36 | 13.26644 | 78.06125 | 15549 ft | 317 kts | 90° |
| 2026-04-21 15:36 | 13.26595 | 78.08408 | 16116 ft | 321 kts | 94° |
| 2026-04-21 15:36 | 13.26180 | 78.10661 | 16430 ft | 334 kts | 105° |
| 2026-04-21 15:37 | 13.25488 | 78.13032 | 16566 ft | 351 kts | 107° |
| 2026-04-21 15:37 | 13.24759 | 78.15486 | 16752 ft | 365 kts | 106° |
| 2026-04-21 15:37 | 13.24009 | 78.18002 | 17183 ft | 371 kts | 107° |
| 2026-04-21 15:37 | 13.23261 | 78.20515 | 17664 ft | 375 kts | 107° |
| 2026-04-21 15:38 | 13.22499 | 78.23083 | 18166 ft | 378 kts | 107° |
| 2026-04-21 15:38 | 13.21730 | 78.25683 | 18619 ft | 381 kts | 107° |
| 2026-04-21 15:38 | 13.20959 | 78.28305 | 18875 ft | 384 kts | 107° |
| 2026-04-21 15:38 | 13.20184 | 78.30937 | 18946 ft | 382 kts | 107° |
| 2026-04-21 15:39 | 13.19417 | 78.33533 | 18961 ft | 380 kts | 107° |
| 2026-04-21 15:39 | 13.18907 | 78.35255 | 18964 ft | 379 kts | 107° |
| 2026-04-21 15:39 | 13.17883 | 78.38714 | 18969 ft | 379 kts | 107° |
| 2026-04-21 15:39 | 13.17376 | 78.40427 | 18957 ft | 379 kts | 107° |
| 2026-04-21 15:40 | 13.16610 | 78.43020 | 18947 ft | 379 kts | 107° |
| 2026-04-21 15:40 | 13.15844 | 78.45606 | 18947 ft | 379 kts | 107° |
| 2026-04-21 15:40 | 13.15078 | 78.48193 | 18954 ft | 379 kts | 107° |
| 2026-04-21 15:40 | 13.14315 | 78.50775 | 18952 ft | 379 kts | 107° |
| 2026-04-21 15:41 | 13.13551 | 78.53361 | 18954 ft | 379 kts | 107° |
| 2026-04-21 15:41 | 13.12783 | 78.55953 | 18960 ft | 379 kts | 107° |
| 2026-04-21 15:42 | 13.10825 | 78.62553 | 18956 ft | 379 kts | 107° |
| 2026-04-21 15:42 | 13.09806 | 78.65988 | 18967 ft | 379 kts | 107° |
| 2026-04-21 15:42 | 13.09673 | 78.66438 | 18962 ft | 379 kts | 107° |
| 2026-04-21 15:47 | 13.08982 | 78.68747 | 18966 ft | 379 kts | 107° |
| 2026-04-21 15:48 | 13.08209 | 78.71338 | 18953 ft | 379 kts | 107° |
| 2026-04-21 15:48 | 13.07438 | 78.73927 | 18958 ft | 379 kts | 107° |
| 2026-04-21 15:48 | 13.06669 | 78.76515 | 18963 ft | 379 kts | 107° |
| 2026-04-21 15:48 | 13.05903 | 78.79098 | 18963 ft | 379 kts | 107° |
| 2026-04-21 15:49 | 13.05135 | 78.81692 | 18965 ft | 379 kts | 107° |
| 2026-04-21 15:49 | 13.04365 | 78.84281 | 18935 ft | 379 kts | 107° |
| 2026-04-21 15:49 | 13.03596 | 78.86867 | 18947 ft | 379 kts | 107° |
| 2026-04-21 15:49 | 13.02826 | 78.89455 | 18946 ft | 379 kts | 107° |
| 2026-04-21 15:50 | 13.02056 | 78.92041 | 18934 ft | 379 kts | 107° |
| 2026-04-21 15:50 | 13.01283 | 78.94629 | 18943 ft | 379 kts | 107° |
| 2026-04-21 15:50 | 13.00511 | 78.97219 | 18947 ft | 379 kts | 107° |
| 2026-04-21 15:50 | 12.99741 | 78.99802 | 18932 ft | 379 kts | 107° |
| 2026-04-21 15:51 | 12.98965 | 79.02395 | 18931 ft | 379 kts | 107° |
| 2026-04-21 15:51 | 12.98201 | 79.04944 | 18931 ft | 379 kts | 107° |
| 2026-04-21 15:51 | 12.97428 | 79.07527 | 18928 ft | 379 kts | 107° |
| 2026-04-21 15:51 | 12.96659 | 79.10109 | 18925 ft | 379 kts | 107° |
| 2026-04-21 15:52 | 12.95892 | 79.12699 | 18930 ft | 379 kts | 107° |
| 2026-04-21 15:52 | 12.95125 | 79.15306 | 18905 ft | 384 kts | 107° |
| 2026-04-21 15:52 | 12.94606 | 79.17076 | 18904 ft | 382 kts | 107° |
| 2026-04-21 15:52 | 12.93609 | 79.20471 | 18535 ft | 371 kts | 107° |
| 2026-04-21 15:53 | 12.92868 | 79.22995 | 18177 ft | 367 kts | 107° |
| 2026-04-21 15:53 | 12.92136 | 79.25487 | 17740 ft | 362 kts | 106° |
| 2026-04-21 15:53 | 12.91413 | 79.27940 | 17281 ft | 359 kts | 106° |
| 2026-04-21 15:53 | 12.90693 | 79.30377 | 16824 ft | 356 kts | 105° |
| 2026-04-21 15:54 | 12.89976 | 79.32794 | 16402 ft | 352 kts | 105° |
| 2026-04-21 15:54 | 12.89269 | 79.35177 | 15981 ft | 348 kts | 105° |
| 2026-04-21 15:54 | 12.88566 | 79.37550 | 15540 ft | 346 kts | 105° |
| 2026-04-21 15:54 | 12.88105 | 79.39107 | 15256 ft | 344 kts | 105° |
| 2026-04-21 15:55 | 12.87179 | 79.42237 | 14701 ft | 341 kts | 105° |
| 2026-04-21 15:55 | 12.86728 | 79.43768 | 14418 ft | 339 kts | 105° |
| 2026-04-21 15:55 | 12.86046 | 79.46078 | 14015 ft | 337 kts | 105° |
| 2026-04-21 15:55 | 12.85354 | 79.49115 | 13757 ft | 322 kts | 92° |
| 2026-04-21 15:56 | 12.85476 | 79.51363 | 13611 ft | 310 kts | 77° |
| 2026-04-21 15:56 | 12.85862 | 79.52791 | 13429 ft | 306 kts | 69° |
| 2026-04-21 15:56 | 12.86610 | 79.54786 | 13082 ft | 303 kts | 68° |
| 2026-04-21 15:56 | 12.87364 | 79.56806 | 12730 ft | 302 kts | 68° |
| 2026-04-21 15:57 | 12.88110 | 79.58814 | 12364 ft | 300 kts | 68° |
| 2026-04-21 15:57 | 12.88847 | 79.60806 | 12024 ft | 298 kts | 68° |
| 2026-04-21 15:57 | 12.89580 | 79.62794 | 11682 ft | 296 kts | 68° |
| 2026-04-21 15:57 | 12.90307 | 79.64763 | 11343 ft | 295 kts | 68° |
| 2026-04-21 15:58 | 12.91031 | 79.66725 | 11014 ft | 293 kts | 68° |
| 2026-04-21 15:58 | 12.91752 | 79.68677 | 10692 ft | 292 kts | 68° |
| 2026-04-21 15:58 | 12.92467 | 79.70619 | 10366 ft | 290 kts | 68° |
| 2026-04-21 15:58 | 12.93177 | 79.72549 | 10033 ft | 289 kts | 68° |
| 2026-04-21 15:59 | 12.93885 | 79.74469 | 9728 ft | 287 kts | 68° |
| 2026-04-21 15:59 | 12.94589 | 79.76373 | 9379 ft | 285 kts | 68° |
| 2026-04-21 15:59 | 12.95283 | 79.78249 | 9026 ft | 284 kts | 68° |
| 2026-04-21 15:59 | 12.95981 | 79.80138 | 8683 ft | 283 kts | 68° |
| 2026-04-21 16:00 | 12.96688 | 79.82049 | 8273 ft | 284 kts | 68° |
| 2026-04-21 16:00 | 12.97393 | 79.83964 | 7545 ft | 297 kts | 69° |
| 2026-04-21 16:00 | 12.98147 | 79.86017 | 6851 ft | 308 kts | 69° |
| 2026-04-21 16:00 | 12.98657 | 79.88164 | 6167 ft | 316 kts | 89° |
| 2026-04-21 16:01 | 12.98132 | 79.90324 | 5521 ft | 324 kts | 117° |
| 2026-04-21 16:01 | 12.96781 | 79.92212 | 4793 ft | 333 kts | 132° |
| 2026-04-21 16:01 | 12.95043 | 79.93844 | 4107 ft | 337 kts | 140° |
| 2026-04-21 16:01 | 12.93232 | 79.95323 | 3729 ft | 331 kts | 139° |
| 2026-04-21 16:02 | 12.91900 | 79.97176 | 3633 ft | 314 kts | 112° |
| 2026-04-21 16:02 | 12.91599 | 79.99361 | 3177 ft | 314 kts | 83° |
| 2026-04-21 16:02 | 12.92405 | 80.01380 | 2796 ft | 314 kts | 53° |
| 2026-04-21 16:02 | 12.93913 | 80.02994 | 2407 ft | 311 kts | 48° |
| 2026-04-21 16:03 | 12.94971 | 80.04854 | 2052 ft | 301 kts | 78° |
| 2026-04-21 16:03 | 12.95291 | 80.06955 | 1683 ft | 297 kts | 82° |
| 2026-04-21 16:03 | 12.95928 | 80.08942 | 1338 ft | 287 kts | 70° |
| 2026-04-21 16:03 | 12.96691 | 80.10745 | 967 ft | 265 kts | 70° |
| 2026-04-21 16:04 | 12.97349 | 80.12436 | 664 ft | 245 kts | 73° |
| 2026-04-21 16:04 | 12.97928 | 80.13982 | 366 ft | 219 kts | 72° |
| 2026-04-21 16:04 | 12.98462 | 80.15412 | 88 ft | 212 kts | 72° |
| 2026-04-21 16:04 | 12.98930 | 80.16675 | 53 ft | 166 kts | 68° |
| 2026-04-21 16:05 | 12.99213 | 80.17416 | 53 ft | 85 kts | 68° |
| 2026-04-21 16:05 | 12.99355 | 80.17807 | 51 ft | 45 kts | 72° |
| 2026-04-21 16:05 | 12.99441 | 80.18078 | 58 ft | 21 kts | 99° |
| 2026-04-21 16:05 | 12.99347 | 80.18094 | 53 ft | 17 kts | 238° |
| 2026-04-21 16:06 | 12.99313 | 80.17998 | 51 ft | 16 kts | 250° |
| 2026-04-21 16:06 | 12.99258 | 80.17867 | 52 ft | 24 kts | 245° |
| 2026-04-21 16:06 | 12.99189 | 80.17690 | 52 ft | 31 kts | 248° |
| 2026-04-21 16:06 | 12.99082 | 80.17580 | 54 ft | 16 kts | 248° |
| 2026-04-21 16:07 | 12.99039 | 80.17444 | 53 ft | 24 kts | 247° |
| 2026-04-21 16:07 | 12.98963 | 80.17264 | 52 ft | 31 kts | 246° |
| 2026-04-21 16:07 | 12.98880 | 80.17070 | 53 ft | 26 kts | 250° |
| 2026-04-21 16:07 | 12.98808 | 80.16873 | 52 ft | 33 kts | 248° |
| 2026-04-21 16:08 | 12.98620 | 80.16377 | 53 ft | 37 kts | 251° |
| 2026-04-21 16:08 | 12.98528 | 80.16146 | 53 ft | 15 kts | 231° |
| 2026-04-21 16:08 | 12.98432 | 80.16156 | 53 ft | 16 kts | 158° |
| 2026-04-21 16:09 | 12.98357 | 80.16122 | 49 ft | 15 kts | 253° |
| 2026-04-21 16:09 | 12.98320 | 80.16014 | 49 ft | 13 kts | 244° |
| 2026-04-21 16:09 | 12.98258 | 80.15975 | 53 ft | 12 kts | 170° |
| 2026-04-21 16:09 | 12.98226 | 80.15988 | 50 ft | 0 kts | 154° |
| 2026-04-21 16:10 | 12.98219 | 80.15991 | 52 ft | 0 kts | 154° |